• Join FlightAware (Why Join?)
  • Login
  • US Flag 
10:54AM EST


 

Airport Tracker/Info


-or-


 

Live Flight TrackerFlight Track Log ✈ CSN6814 ✈ 19-Sep-2013 ✈ ZWTN / HTN - ZWWW / URC

Flight Track Log - Related Links

Times and Time Zones

All times are in EDT time to prevent confusion due to time zone crossing. See the CSN6814 flight status page for this flight to view local times or setup timezone preferences in your user account.

Time Position Orientation Groundspeed Altitude Reporting Facility
EDT Latitude Longitude Course Direction KTS MPH feet Rate Location/Type
06:41AM 37.1569 79.9798 38° Northeast  Level Estimated
06:42AM 37.2751 80.0949 38° Northeast  Level Estimated
06:43AM 37.3932 80.2105 38° Northeast  Level Estimated
06:44AM 37.5112 80.3264 38° Northeast  Level Estimated
06:45AM 37.6291 80.4427 38° Northeast  Level Estimated
06:46AM 37.7468 80.5593 38° Northeast  Level Estimated
06:47AM 37.8645 80.6764 38° Northeast  Level Estimated
06:48AM 37.9820 80.7938 38° Northeast  Level Estimated
06:49AM 38.0994 80.9115 38° Northeast  Level Estimated
06:50AM 38.2168 81.0297 38° Northeast  Level Estimated
06:51AM 38.3339 81.1482 38° Northeast  Level Estimated
06:52AM 38.4510 81.2671 38° Northeast  Level Estimated
06:53AM 38.5679 81.3864 39° Northeast  Level Estimated
06:54AM 38.6847 81.5061 39° Northeast  Level Estimated
06:55AM 38.8014 81.6262 39° Northeast  Level Estimated
06:56AM 38.9180 81.7467 39° Northeast  Level Estimated
06:57AM 39.0345 81.8676 39° Northeast  Level Estimated
06:58AM 39.1508 81.9888 39° Northeast  Level Estimated
06:59AM 39.2670 82.1105 39° Northeast  Level Estimated
07:00AM 39.3831 82.2326 39° Northeast  Level Estimated
07:01AM 39.4990 82.3551 39° Northeast  Level Estimated
07:02AM 39.6148 82.4780 39° Northeast  Level Estimated
07:03AM 39.7305 82.6013 39° Northeast  Level Estimated
07:04AM 39.8461 82.7250 39° Northeast  Level Estimated
07:05AM 39.9615 82.8491 39° Northeast  Level Estimated
07:06AM 40.0768 82.9737 40° Northeast  Level Estimated
07:07AM 40.1920 83.0987 40° Northeast  Level Estimated
07:08AM 40.3070 83.2241 40° Northeast  Level Estimated
07:09AM 40.4219 83.3499 40° Northeast  Level Estimated
07:10AM 40.5366 83.4762 40° Northeast  Level Estimated
07:11AM 40.6512 83.6029 40° Northeast  Level Estimated
07:12AM 40.7657 83.7300 40° Northeast  Level Estimated
07:13AM 40.8800 83.8576 40° Northeast  Level Estimated
07:14AM 40.9942 83.9856 40° Northeast  Level Estimated
07:15AM 41.1083 84.1140 40° Northeast  Level Estimated
07:16AM 41.2222 84.2429 40° Northeast  Level Estimated
07:17AM 41.3359 84.3723 40° Northeast  Level Estimated
07:18AM 41.4496 84.5021 41° Northeast  Level Estimated
07:19AM 41.5630 84.6323 41° Northeast  Level Estimated
07:20AM 41.6764 84.7631 41° Northeast  Level Estimated
07:21AM 41.7895 84.8942 41° Northeast  Level Estimated
07:22AM 41.9026 85.0259 41° Northeast  Level Estimated
07:23AM 42.0154 85.1580 41° Northeast  Level Estimated
07:24AM 42.1282 85.2906 41° Northeast  Level Estimated
07:25AM 42.2407 85.4236 41° Northeast  Level Estimated
07:26AM 42.3531 85.5571 41° Northeast  Level Estimated
07:27AM 42.4654 85.6911 41° Northeast  Level Estimated
07:28AM 42.5775 85.8256 41° Northeast  Level Estimated
07:29AM 42.6894 85.9606 42° Northeast  Level Estimated
07:30AM 42.8012 86.0960 42° Northeast  Level Estimated
07:31AM 42.9128 86.2320 42° Northeast  Level Estimated
07:32AM 43.0243 86.3684 42° Northeast  Level Estimated
07:33AM 43.1356 86.5053 42° Northeast  Level Estimated
07:34AM 43.2467 86.6428 42° Northeast  Level Estimated
07:35AM 43.3577 86.7807 42° Northeast  Level Estimated
07:36AM 43.4685 86.9192 42° Northeast  Level Estimated
07:37AM 43.5792 87.0581 42° Northeast  Level Estimated
07:38AM 43.6896 87.1976 42° Northeast  Level Estimated
07:39AM 43.7999 87.3375 42° Northeast  Level Estimated
07:40AM 43.9071 87.4742 43° Northeast  Level Estimated
07:41AM 43.9071 87.4742 144° Southeast  Level Estimated
07:42AM 43.9071 87.4742 144° Southeast  Level Estimated
07:43AM 43.9071 87.4742 144° Southeast  Level Estimated
07:44AM 43.9071 87.4742 144° Southeast  Level Estimated
07:45AM 43.9071 87.4742 144° Southeast  Level Estimated
07:46AM 43.9071 87.4742 144° Southeast  Level Estimated
07:47AM 43.9071 87.4742 144° Southeast  Level Estimated
07:48AM 43.9071 87.4742 144° Southeast  Level Estimated
07:49AM 43.9071 87.4742 144° Southeast  Level Estimated
07:50AM 43.9071 87.4742 144° Southeast  Level Estimated
07:51AM 43.9071 87.4742 144° Southeast  Level Estimated
07:52AM 43.9071 87.4742 144° Southeast  Level Estimated
07:53AM 43.9071 87.4742 144° Southeast  Level Estimated
07:54AM 43.9071 87.4742 144° Southeast  Level Estimated
07:55AM 43.9071 87.4742 144° Southeast  Level Estimated
07:56AM 43.9071 87.4742 144° Southeast  Level Estimated